sensor_id;sensor_type;location;lat;lon;timestamp;temperature;humidity
36990;DHT22;22898;52.102;5.776;2022-12-16T00:01:50;5.70;87.50
36990;DHT22;22898;52.102;5.776;2022-12-16T00:04:16;5.70;87.70
36990;DHT22;22898;52.102;5.776;2022-12-16T00:06:42;5.80;87.70
36990;DHT22;22898;52.102;5.776;2022-12-16T00:09:08;5.90;87.30
36990;DHT22;22898;52.102;5.776;2022-12-16T00:11:33;6.00;86.90
36990;DHT22;22898;52.102;5.776;2022-12-16T00:13:59;6.10;85.80
36990;DHT22;22898;52.102;5.776;2022-12-16T00:16:24;6.00;85.90
36990;DHT22;22898;52.102;5.776;2022-12-16T00:18:50;6.00;86.00
36990;DHT22;22898;52.102;5.776;2022-12-16T00:21:16;5.90;86.70
36990;DHT22;22898;52.102;5.776;2022-12-16T00:23:44;6.00;87.00
36990;DHT22;22898;52.102;5.776;2022-12-16T00:26:11;6.10;86.90
36990;DHT22;22898;52.102;5.776;2022-12-16T00:28:37;6.30;86.30
36990;DHT22;22898;52.102;5.776;2022-12-16T00:31:03;6.40;86.40
36990;DHT22;22898;52.102;5.776;2022-12-16T00:33:29;6.40;86.10
36990;DHT22;22898;52.102;5.776;2022-12-16T00:35:55;6.40;85.80
36990;DHT22;22898;52.102;5.776;2022-12-16T00:38:22;6.30;86.00
36990;DHT22;22898;52.102;5.776;2022-12-16T00:40:47;6.40;86.40
36990;DHT22;22898;52.102;5.776;2022-12-16T00:43:13;6.40;86.40
36990;DHT22;22898;52.102;5.776;2022-12-16T00:45:39;6.50;86.70
36990;DHT22;22898;52.102;5.776;2022-12-16T00:48:05;6.60;86.20
36990;DHT22;22898;52.102;5.776;2022-12-16T00:50:31;6.60;86.20
36990;DHT22;22898;52.102;5.776;2022-12-16T00:52:57;6.70;86.20
36990;DHT22;22898;52.102;5.776;2022-12-16T00:55:23;6.70;86.00
36990;DHT22;22898;52.102;5.776;2022-12-16T00:57:49;6.80;86.00
36990;DHT22;22898;52.102;5.776;2022-12-16T01:00:15;6.70;86.20
36990;DHT22;22898;52.102;5.776;2022-12-16T01:02:42;6.80;85.60
36990;DHT22;22898;52.102;5.776;2022-12-16T01:05:09;6.80;86.00
36990;DHT22;22898;52.102;5.776;2022-12-16T01:07:35;6.70;86.30
36990;DHT22;22898;52.102;5.776;2022-12-16T01:10:01;6.70;85.70
36990;DHT22;22898;52.102;5.776;2022-12-16T01:12:27;6.60;86.10
36990;DHT22;22898;52.102;5.776;2022-12-16T01:14:52;6.60;86.30
36990;DHT22;22898;52.102;5.776;2022-12-16T01:17:18;6.70;86.10
36990;DHT22;22898;52.102;5.776;2022-12-16T01:19:43;6.70;85.80
36990;DHT22;22898;52.102;5.776;2022-12-16T01:22:10;6.50;87.00
36990;DHT22;22898;52.102;5.776;2022-12-16T01:24:35;6.50;87.30
36990;DHT22;22898;52.102;5.776;2022-12-16T01:27:01;6.50;87.40
36990;DHT22;22898;52.102;5.776;2022-12-16T01:29:26;6.80;86.50
36990;DHT22;22898;52.102;5.776;2022-12-16T01:31:52;6.90;86.00
36990;DHT22;22898;52.102;5.776;2022-12-16T01:34:18;7.10;85.80
36990;DHT22;22898;52.102;5.776;2022-12-16T01:36:43;7.10;85.40
36990;DHT22;22898;52.102;5.776;2022-12-16T01:39:09;7.20;85.50
36990;DHT22;22898;52.102;5.776;2022-12-16T01:41:36;7.20;85.00
36990;DHT22;22898;52.102;5.776;2022-12-16T01:44:19;7.30;84.40
36990;DHT22;22898;52.102;5.776;2022-12-16T01:46:59;7.30;85.10
36990;DHT22;22898;52.102;5.776;2022-12-16T01:49:34;7.40;83.80
36990;DHT22;22898;52.102;5.776;2022-12-16T01:52:04;7.40;83.90
36990;DHT22;22898;52.102;5.776;2022-12-16T01:54:59;7.30;84.20
36990;DHT22;22898;52.102;5.776;2022-12-16T01:57:34;7.30;84.40
36990;DHT22;22898;52.102;5.776;2022-12-16T02:00:02;7.30;84.20
36990;DHT22;22898;52.102;5.776;2022-12-16T02:02:28;7.20;84.70
36990;DHT22;22898;52.102;5.776;2022-12-16T02:04:54;7.20;84.80
36990;DHT22;22898;52.102;5.776;2022-12-16T02:07:43;7.20;84.70
36990;DHT22;22898;52.102;5.776;2022-12-16T02:10:09;7.10;84.80
36990;DHT22;22898;52.102;5.776;2022-12-16T02:12:56;7.00;85.30
36990;DHT22;22898;52.102;5.776;2022-12-16T02:15:45;7.10;85.50
36990;DHT22;22898;52.102;5.776;2022-12-16T02:27:18;7.30;85.20
36990;DHT22;22898;52.102;5.776;2022-12-16T02:38:25;7.50;85.10
36990;DHT22;22898;52.102;5.776;2022-12-16T02:41:03;7.60;83.80
36990;DHT22;22898;52.102;5.776;2022-12-16T02:46:14;7.70;83.50
36990;DHT22;22898;52.102;5.776;2022-12-16T02:48:40;7.70;83.60
36990;DHT22;22898;52.102;5.776;2022-12-16T02:51:05;7.70;83.80
36990;DHT22;22898;52.102;5.776;2022-12-16T02:53:34;7.70;84.70
36990;DHT22;22898;52.102;5.776;2022-12-16T02:56:07;7.70;83.50
36990;DHT22;22898;52.102;5.776;2022-12-16T02:58:51;7.70;83.80
36990;DHT22;22898;52.102;5.776;2022-12-16T03:04:07;7.20;85.20
36990;DHT22;22898;52.102;5.776;2022-12-16T03:06:36;7.30;85.30
36990;DHT22;22898;52.102;5.776;2022-12-16T03:09:07;7.50;85.10
36990;DHT22;22898;52.102;5.776;2022-12-16T03:11:33;7.60;84.60
36990;DHT22;22898;52.102;5.776;2022-12-16T03:14:00;7.80;84.20
36990;DHT22;22898;52.102;5.776;2022-12-16T03:16:29;7.60;84.30
36990;DHT22;22898;52.102;5.776;2022-12-16T03:19:00;7.00;86.70
36990;DHT22;22898;52.102;5.776;2022-12-16T03:21:31;6.80;87.50
36990;DHT22;22898;52.102;5.776;2022-12-16T03:24:01;6.80;88.50
36990;DHT22;22898;52.102;5.776;2022-12-16T03:26:46;6.90;87.50
36990;DHT22;22898;52.102;5.776;2022-12-16T03:32:00;6.50;90.00
36990;DHT22;22898;52.102;5.776;2022-12-16T03:34:35;6.90;88.80
36990;DHT22;22898;52.102;5.776;2022-12-16T03:37:07;6.90;88.00
36990;DHT22;22898;52.102;5.776;2022-12-16T03:39:37;7.20;87.80
36990;DHT22;22898;52.102;5.776;2022-12-16T03:42:04;7.30;87.30
36990;DHT22;22898;52.102;5.776;2022-12-16T03:44:31;7.40;87.20
36990;DHT22;22898;52.102;5.776;2022-12-16T03:46:57;7.20;88.50
36990;DHT22;22898;52.102;5.776;2022-12-16T03:49:23;7.40;88.00
36990;DHT22;22898;52.102;5.776;2022-12-16T03:51:48;7.20;88.20
36990;DHT22;22898;52.102;5.776;2022-12-16T03:54:14;7.00;88.60
36990;DHT22;22898;52.102;5.776;2022-12-16T03:56:39;6.90;89.20
36990;DHT22;22898;52.102;5.776;2022-12-16T03:59:05;6.90;88.90
36990;DHT22;22898;52.102;5.776;2022-12-16T04:01:31;6.50;90.30
36990;DHT22;22898;52.102;5.776;2022-12-16T04:03:57;6.50;90.70
36990;DHT22;22898;52.102;5.776;2022-12-16T04:06:22;6.70;90.40
36990;DHT22;22898;52.102;5.776;2022-12-16T04:08:48;6.90;90.00
36990;DHT22;22898;52.102;5.776;2022-12-16T04:11:14;6.80;90.10
36990;DHT22;22898;52.102;5.776;2022-12-16T04:13:59;6.20;91.10
36990;DHT22;22898;52.102;5.776;2022-12-16T04:16:43;5.90;92.10
36990;DHT22;22898;52.102;5.776;2022-12-16T04:19:33;5.90;92.00
36990;DHT22;22898;52.102;5.776;2022-12-16T04:22:28;5.50;93.30
36990;DHT22;22898;52.102;5.776;2022-12-16T04:25:21;5.60;93.20
36990;DHT22;22898;52.102;5.776;2022-12-16T04:27:47;5.40;93.90
36990;DHT22;22898;52.102;5.776;2022-12-16T04:30:17;5.70;93.80
36990;DHT22;22898;52.102;5.776;2022-12-16T04:32:48;6.10;93.20
36990;DHT22;22898;52.102;5.776;2022-12-16T04:35:34;6.20;92.80
36990;DHT22;22898;52.102;5.776;2022-12-16T04:38:18;5.90;93.40
36990;DHT22;22898;52.102;5.776;2022-12-16T04:41:02;5.90;93.30
36990;DHT22;22898;52.102;5.776;2022-12-16T04:43:46;5.90;93.40
36990;DHT22;22898;52.102;5.776;2022-12-16T04:46:30;5.70;93.90
36990;DHT22;22898;52.102;5.776;2022-12-16T04:49:14;5.50;94.40
36990;DHT22;22898;52.102;5.776;2022-12-16T04:51:58;5.50;95.00
36990;DHT22;22898;52.102;5.776;2022-12-16T04:54:42;5.60;94.60
36990;DHT22;22898;52.102;5.776;2022-12-16T04:57:27;5.30;94.80
36990;DHT22;22898;52.102;5.776;2022-12-16T05:00:11;5.40;95.20
36990;DHT22;22898;52.102;5.776;2022-12-16T05:02:56;5.10;95.50
36990;DHT22;22898;52.102;5.776;2022-12-16T05:05:41;4.80;95.90
36990;DHT22;22898;52.102;5.776;2022-12-16T05:08:25;4.30;97.20
36990;DHT22;22898;52.102;5.776;2022-12-16T05:11:09;4.90;96.50
36990;DHT22;22898;52.102;5.776;2022-12-16T05:13:53;5.20;96.10
36990;DHT22;22898;52.102;5.776;2022-12-16T05:16:37;5.30;95.50
36990;DHT22;22898;52.102;5.776;2022-12-16T05:19:21;5.20;96.00
36990;DHT22;22898;52.102;5.776;2022-12-16T05:22:05;4.80;96.80
36990;DHT22;22898;52.102;5.776;2022-12-16T05:24:50;5.00;96.70
36990;DHT22;22898;52.102;5.776;2022-12-16T05:27:34;5.30;96.40
36990;DHT22;22898;52.102;5.776;2022-12-16T05:30:18;5.30;96.00
36990;DHT22;22898;52.102;5.776;2022-12-16T05:33:02;5.30;96.80
36990;DHT22;22898;52.102;5.776;2022-12-16T05:35:46;5.60;95.70
36990;DHT22;22898;52.102;5.776;2022-12-16T05:38:30;5.50;96.10
36990;DHT22;22898;52.102;5.776;2022-12-16T05:41:14;5.30;96.20
36990;DHT22;22898;52.102;5.776;2022-12-16T05:43:59;5.20;96.70
36990;DHT22;22898;52.102;5.776;2022-12-16T05:46:43;5.30;96.50
36990;DHT22;22898;52.102;5.776;2022-12-16T05:49:27;5.30;96.40
36990;DHT22;22898;52.102;5.776;2022-12-16T05:52:11;5.60;95.90
36990;DHT22;22898;52.102;5.776;2022-12-16T05:54:55;5.70;95.40
36990;DHT22;22898;52.102;5.776;2022-12-16T05:57:39;5.80;95.00
36990;DHT22;22898;52.102;5.776;2022-12-16T06:00:23;5.70;95.50
36990;DHT22;22898;52.102;5.776;2022-12-16T06:03:07;5.40;95.70
36990;DHT22;22898;52.102;5.776;2022-12-16T06:05:51;5.40;96.10
36990;DHT22;22898;52.102;5.776;2022-12-16T06:08:35;5.70;95.30
36990;DHT22;22898;52.102;5.776;2022-12-16T06:11:19;5.90;94.80
36990;DHT22;22898;52.102;5.776;2022-12-16T06:14:03;6.00;94.50
36990;DHT22;22898;52.102;5.776;2022-12-16T06:16:47;6.10;94.20
36990;DHT22;22898;52.102;5.776;2022-12-16T06:19:31;6.20;94.00
36990;DHT22;22898;52.102;5.776;2022-12-16T06:22:15;6.30;93.70
36990;DHT22;22898;52.102;5.776;2022-12-16T06:24:59;6.60;93.00
36990;DHT22;22898;52.102;5.776;2022-12-16T06:27:49;6.80;92.20
36990;DHT22;22898;52.102;5.776;2022-12-16T06:30:34;6.90;91.50
36990;DHT22;22898;52.102;5.776;2022-12-16T06:33:18;6.90;91.30
36990;DHT22;22898;52.102;5.776;2022-12-16T06:36:02;6.90;91.20
36990;DHT22;22898;52.102;5.776;2022-12-16T06:38:46;6.90;91.20
36990;DHT22;22898;52.102;5.776;2022-12-16T06:41:30;6.80;91.20
36990;DHT22;22898;52.102;5.776;2022-12-16T06:44:14;6.80;91.20
36990;DHT22;22898;52.102;5.776;2022-12-16T06:46:59;6.80;90.90
36990;DHT22;22898;52.102;5.776;2022-12-16T06:49:42;6.50;91.50
36990;DHT22;22898;52.102;5.776;2022-12-16T06:52:27;6.50;91.70
36990;DHT22;22898;52.102;5.776;2022-12-16T06:55:10;6.60;91.40
36990;DHT22;22898;52.102;5.776;2022-12-16T06:57:58;6.60;91.10
36990;DHT22;22898;52.102;5.776;2022-12-16T07:00:42;6.60;91.00
36990;DHT22;22898;52.102;5.776;2022-12-16T07:03:27;6.60;90.80
36990;DHT22;22898;52.102;5.776;2022-12-16T07:06:11;6.50;90.60
36990;DHT22;22898;52.102;5.776;2022-12-16T07:08:55;6.40;90.70
36990;DHT22;22898;52.102;5.776;2022-12-16T07:11:39;6.40;90.70
36990;DHT22;22898;52.102;5.776;2022-12-16T07:14:23;6.40;90.40
36990;DHT22;22898;52.102;5.776;2022-12-16T07:17:07;6.40;90.50
36990;DHT22;22898;52.102;5.776;2022-12-16T07:19:51;6.40;90.30
36990;DHT22;22898;52.102;5.776;2022-12-16T07:22:35;6.40;90.30
36990;DHT22;22898;52.102;5.776;2022-12-16T07:25:19;6.30;90.40
36990;DHT22;22898;52.102;5.776;2022-12-16T07:28:03;6.30;90.40
36990;DHT22;22898;52.102;5.776;2022-12-16T07:30:47;6.30;90.40
36990;DHT22;22898;52.102;5.776;2022-12-16T07:33:31;6.30;90.30
36990;DHT22;22898;52.102;5.776;2022-12-16T07:36:16;6.20;90.20
36990;DHT22;22898;52.102;5.776;2022-12-16T07:39:00;6.20;90.10
36990;DHT22;22898;52.102;5.776;2022-12-16T07:41:44;6.30;90.00
36990;DHT22;22898;52.102;5.776;2022-12-16T07:44:28;6.20;89.10
36990;DHT22;22898;52.102;5.776;2022-12-16T07:47:12;6.20;87.60
36990;DHT22;22898;52.102;5.776;2022-12-16T07:49:56;6.10;88.20
36990;DHT22;22898;52.102;5.776;2022-12-16T07:52:40;5.90;89.10
36990;DHT22;22898;52.102;5.776;2022-12-16T07:55:23;5.80;89.50
36990;DHT22;22898;52.102;5.776;2022-12-16T07:58:08;5.80;89.70
36990;DHT22;22898;52.102;5.776;2022-12-16T08:00:52;5.80;89.80
36990;DHT22;22898;52.102;5.776;2022-12-16T08:03:36;5.90;90.00
36990;DHT22;22898;52.102;5.776;2022-12-16T08:06:20;6.00;89.90
36990;DHT22;22898;52.102;5.776;2022-12-16T08:09:04;6.00;89.70
36990;DHT22;22898;52.102;5.776;2022-12-16T08:11:49;6.10;89.30
36990;DHT22;22898;52.102;5.776;2022-12-16T08:14:33;6.20;89.10
36990;DHT22;22898;52.102;5.776;2022-12-16T08:17:17;6.20;88.90
36990;DHT22;22898;52.102;5.776;2022-12-16T08:20:01;6.20;89.20
36990;DHT22;22898;52.102;5.776;2022-12-16T08:22:45;6.20;88.90
36990;DHT22;22898;52.102;5.776;2022-12-16T08:25:29;6.20;88.80
36990;DHT22;22898;52.102;5.776;2022-12-16T08:28:13;6.20;88.20
36990;DHT22;22898;52.102;5.776;2022-12-16T08:30:57;6.30;87.90
36990;DHT22;22898;52.102;5.776;2022-12-16T08:33:41;6.20;87.80
36990;DHT22;22898;52.102;5.776;2022-12-16T08:36:25;6.10;87.70
36990;DHT22;22898;52.102;5.776;2022-12-16T08:39:09;6.20;87.50
36990;DHT22;22898;52.102;5.776;2022-12-16T08:41:53;6.10;88.10
36990;DHT22;22898;52.102;5.776;2022-12-16T08:44:37;6.10;88.00
36990;DHT22;22898;52.102;5.776;2022-12-16T08:47:21;6.10;88.00
36990;DHT22;22898;52.102;5.776;2022-12-16T08:50:06;6.10;88.40
36990;DHT22;22898;52.102;5.776;2022-12-16T08:52:50;6.20;88.00
36990;DHT22;22898;52.102;5.776;2022-12-16T08:55:34;6.30;88.10
36990;DHT22;22898;52.102;5.776;2022-12-16T08:58:19;6.30;88.20
36990;DHT22;22898;52.102;5.776;2022-12-16T09:01:03;6.40;88.40
36990;DHT22;22898;52.102;5.776;2022-12-16T09:03:47;6.40;88.40
36990;DHT22;22898;52.102;5.776;2022-12-16T09:06:31;6.50;88.80
36990;DHT22;22898;52.102;5.776;2022-12-16T09:09:15;6.60;88.30
36990;DHT22;22898;52.102;5.776;2022-12-16T09:11:59;6.70;88.40
36990;DHT22;22898;52.102;5.776;2022-12-16T09:14:43;6.80;88.60
36990;DHT22;22898;52.102;5.776;2022-12-16T09:17:28;6.90;88.30
36990;DHT22;22898;52.102;5.776;2022-12-16T09:20:12;6.90;88.60
36990;DHT22;22898;52.102;5.776;2022-12-16T09:22:56;6.80;88.90
36990;DHT22;22898;52.102;5.776;2022-12-16T09:25:44;6.40;90.40
36990;DHT22;22898;52.102;5.776;2022-12-16T09:28:28;5.50;91.90
36990;DHT22;22898;52.102;5.776;2022-12-16T09:31:12;5.30;92.90
36990;DHT22;22898;52.102;5.776;2022-12-16T09:33:56;5.10;93.20
36990;DHT22;22898;52.102;5.776;2022-12-16T09:36:40;4.40;94.50
36990;DHT22;22898;52.102;5.776;2022-12-16T09:39:24;4.00;95.60
36990;DHT22;22898;52.102;5.776;2022-12-16T09:42:27;4.00;96.10
36990;DHT22;22898;52.102;5.776;2022-12-16T09:51:15;4.30;96.40
36990;DHT22;22898;52.102;5.776;2022-12-16T09:54:01;4.20;96.70
36990;DHT22;22898;52.102;5.776;2022-12-16T09:56:46;4.30;96.80
36990;DHT22;22898;52.102;5.776;2022-12-16T09:59:36;4.50;96.70
36990;DHT22;22898;52.102;5.776;2022-12-16T10:02:24;4.70;96.60
36990;DHT22;22898;52.102;5.776;2022-12-16T10:05:14;4.90;96.50
36990;DHT22;22898;52.102;5.776;2022-12-16T10:08:34;5.00;96.10
36990;DHT22;22898;52.102;5.776;2022-12-16T10:11:43;5.00;96.60
36990;DHT22;22898;52.102;5.776;2022-12-16T10:14:42;5.00;96.90
36990;DHT22;22898;52.102;5.776;2022-12-16T10:17:30;5.10;96.70
36990;DHT22;22898;52.102;5.776;2022-12-16T10:26:42;6.10;95.40
36990;DHT22;22898;52.102;5.776;2022-12-16T10:29:32;6.60;94.90
36990;DHT22;22898;52.102;5.776;2022-12-16T10:32:39;7.20;94.20
36990;DHT22;22898;52.102;5.776;2022-12-16T10:35:43;7.90;93.20
36990;DHT22;22898;52.102;5.776;2022-12-16T10:38:38;8.60;92.20
36990;DHT22;22898;52.102;5.776;2022-12-16T10:41:27;8.90;91.10
36990;DHT22;22898;52.102;5.776;2022-12-16T10:47:12;8.80;91.40
36990;DHT22;22898;52.102;5.776;2022-12-16T10:49:57;8.20;91.80
36990;DHT22;22898;52.102;5.776;2022-12-16T10:52:55;7.40;93.70
36990;DHT22;22898;52.102;5.776;2022-12-16T10:59:00;7.90;93.50
36990;DHT22;22898;52.102;5.776;2022-12-16T11:04:59;8.90;92.10
36990;DHT22;22898;52.102;5.776;2022-12-16T11:10:30;9.70;90.20
36990;DHT22;22898;52.102;5.776;2022-12-16T11:13:24;9.50;90.20
36990;DHT22;22898;52.102;5.776;2022-12-16T11:16:18;9.10;90.50
36990;DHT22;22898;52.102;5.776;2022-12-16T11:19:04;9.00;91.00
36990;DHT22;22898;52.102;5.776;2022-12-16T11:21:49;8.80;91.10
36990;DHT22;22898;52.102;5.776;2022-12-16T11:24:33;8.20;92.60
36990;DHT22;22898;52.102;5.776;2022-12-16T11:27:24;8.30;92.50
36990;DHT22;22898;52.102;5.776;2022-12-16T11:33:19;8.20;92.80
36990;DHT22;22898;52.102;5.776;2022-12-16T11:36:09;7.00;94.60
36990;DHT22;22898;52.102;5.776;2022-12-16T11:38:55;7.10;95.30
36990;DHT22;22898;52.102;5.776;2022-12-16T11:41:40;7.30;95.00
36990;DHT22;22898;52.102;5.776;2022-12-16T11:47:55;7.70;94.10
36990;DHT22;22898;52.102;5.776;2022-12-16T11:50:46;7.70;94.50
36990;DHT22;22898;52.102;5.776;2022-12-16T11:54:03;7.80;94.10
36990;DHT22;22898;52.102;5.776;2022-12-16T11:56:50;7.50;94.20
36990;DHT22;22898;52.102;5.776;2022-12-16T12:05:30;8.50;92.90
36990;DHT22;22898;52.102;5.776;2022-12-16T12:08:19;8.70;92.50
36990;DHT22;22898;52.102;5.776;2022-12-16T12:17:00;8.00;93.60
36990;DHT22;22898;52.102;5.776;2022-12-16T12:22:54;7.20;95.00
36990;DHT22;22898;52.102;5.776;2022-12-16T12:25:50;7.00;95.60
36990;DHT22;22898;52.102;5.776;2022-12-16T12:28:58;6.70;96.30
36990;DHT22;22898;52.102;5.776;2022-12-16T12:38:18;6.40;97.20
36990;DHT22;22898;52.102;5.776;2022-12-16T12:41:20;6.20;97.50
36990;DHT22;22898;52.102;5.776;2022-12-16T12:44:15;6.00;98.40
36990;DHT22;22898;52.102;5.776;2022-12-16T12:47:05;6.20;98.00
36990;DHT22;22898;52.102;5.776;2022-12-16T12:53:18;6.50;97.90
36990;DHT22;22898;52.102;5.776;2022-12-16T12:56:39;6.80;97.20
36990;DHT22;22898;52.102;5.776;2022-12-16T12:59:37;6.90;96.80
36990;DHT22;22898;52.102;5.776;2022-12-16T13:02:26;6.90;96.80
36990;DHT22;22898;52.102;5.776;2022-12-16T13:05:13;6.90;97.00
36990;DHT22;22898;52.102;5.776;2022-12-16T13:11:19;6.70;97.10
36990;DHT22;22898;52.102;5.776;2022-12-16T13:17:18;6.50;97.70
36990;DHT22;22898;52.102;5.776;2022-12-16T13:20:04;6.40;98.10
36990;DHT22;22898;52.102;5.776;2022-12-16T13:26:16;6.30;98.20
36990;DHT22;22898;52.102;5.776;2022-12-16T13:29:20;6.20;98.80
36990;DHT22;22898;52.102;5.776;2022-12-16T13:35:00;6.70;97.60
36990;DHT22;22898;52.102;5.776;2022-12-16T13:37:59;6.80;97.40
36990;DHT22;22898;52.102;5.776;2022-12-16T13:40:59;7.30;97.40
36990;DHT22;22898;52.102;5.776;2022-12-16T13:43:45;7.30;96.50
36990;DHT22;22898;52.102;5.776;2022-12-16T13:46:47;7.00;97.20
36990;DHT22;22898;52.102;5.776;2022-12-16T13:53:06;7.00;97.20
36990;DHT22;22898;52.102;5.776;2022-12-16T13:55:58;7.70;96.00
36990;DHT22;22898;52.102;5.776;2022-12-16T13:58:47;8.10;94.90
36990;DHT22;22898;52.102;5.776;2022-12-16T14:01:53;8.50;94.10
36990;DHT22;22898;52.102;5.776;2022-12-16T14:04:43;8.30;94.60
36990;DHT22;22898;52.102;5.776;2022-12-16T14:07:31;8.70;93.60
36990;DHT22;22898;52.102;5.776;2022-12-16T14:10:23;9.20;93.10
36990;DHT22;22898;52.102;5.776;2022-12-16T14:22:42;9.10;92.80
36990;DHT22;22898;52.102;5.776;2022-12-16T14:25:31;9.00;93.00
36990;DHT22;22898;52.102;5.776;2022-12-16T14:31:21;9.00;93.30
36990;DHT22;22898;52.102;5.776;2022-12-16T14:34:34;8.50;94.00
36990;DHT22;22898;52.102;5.776;2022-12-16T14:37:34;8.80;93.40
36990;DHT22;22898;52.102;5.776;2022-12-16T14:40:28;8.90;92.70
36990;DHT22;22898;52.102;5.776;2022-12-16T14:43:17;8.80;93.80
36990;DHT22;22898;52.102;5.776;2022-12-16T14:46:02;9.10;92.90
36990;DHT22;22898;52.102;5.776;2022-12-16T14:48:47;8.90;92.90
36990;DHT22;22898;52.102;5.776;2022-12-16T14:51:36;8.90;93.10
36990;DHT22;22898;52.102;5.776;2022-12-16T14:57:22;9.40;92.30
36990;DHT22;22898;52.102;5.776;2022-12-16T15:02:52;9.10;92.60
36990;DHT22;22898;52.102;5.776;2022-12-16T15:05:37;9.20;92.60
36990;DHT22;22898;52.102;5.776;2022-12-16T15:08:23;9.40;92.20
36990;DHT22;22898;52.102;5.776;2022-12-16T15:11:10;9.30;92.40
36990;DHT22;22898;52.102;5.776;2022-12-16T15:14:00;9.60;92.20
36990;DHT22;22898;52.102;5.776;2022-12-16T15:16:46;9.50;92.20
36990;DHT22;22898;52.102;5.776;2022-12-16T15:19:38;9.40;92.10
36990;DHT22;22898;52.102;5.776;2022-12-16T15:22:24;9.60;92.00
36990;DHT22;22898;52.102;5.776;2022-12-16T15:25:23;9.70;91.80
36990;DHT22;22898;52.102;5.776;2022-12-16T15:28:46;9.40;91.90
36990;DHT22;22898;52.102;5.776;2022-12-16T15:31:36;9.60;92.00
36990;DHT22;22898;52.102;5.776;2022-12-16T15:34:26;9.90;91.40
36990;DHT22;22898;52.102;5.776;2022-12-16T15:37:23;10.00;91.10
36990;DHT22;22898;52.102;5.776;2022-12-16T15:40:20;9.90;91.20
36990;DHT22;22898;52.102;5.776;2022-12-16T15:43:05;10.10;91.20
36990;DHT22;22898;52.102;5.776;2022-12-16T15:45:49;10.10;90.90
36990;DHT22;22898;52.102;5.776;2022-12-16T15:48:35;10.40;90.40
36990;DHT22;22898;52.102;5.776;2022-12-16T15:51:29;10.50;90.00
36990;DHT22;22898;52.102;5.776;2022-12-16T15:54:22;10.50;89.80
36990;DHT22;22898;52.102;5.776;2022-12-16T15:57:27;10.50;90.00
36990;DHT22;22898;52.102;5.776;2022-12-16T16:00:21;10.50;90.10
36990;DHT22;22898;52.102;5.776;2022-12-16T16:06:00;10.50;90.10
36990;DHT22;22898;52.102;5.776;2022-12-16T16:08:48;10.60;89.80
36990;DHT22;22898;52.102;5.776;2022-12-16T16:11:32;10.50;89.60
36990;DHT22;22898;52.102;5.776;2022-12-16T16:14:16;10.20;90.70
36990;DHT22;22898;52.102;5.776;2022-12-16T16:17:00;10.20;90.60
36990;DHT22;22898;52.102;5.776;2022-12-16T16:19:44;10.20;90.60
36990;DHT22;22898;52.102;5.776;2022-12-16T16:22:28;10.20;90.30
36990;DHT22;22898;52.102;5.776;2022-12-16T16:25:12;9.80;91.10
36990;DHT22;22898;52.102;5.776;2022-12-16T16:27:56;9.50;91.80
36990;DHT22;22898;52.102;5.776;2022-12-16T16:30:40;9.20;92.10
36990;DHT22;22898;52.102;5.776;2022-12-16T16:33:24;8.50;93.80
36990;DHT22;22898;52.102;5.776;2022-12-16T16:36:13;8.00;94.00
36990;DHT22;22898;52.102;5.776;2022-12-16T16:38:58;7.50;95.50
36990;DHT22;22898;52.102;5.776;2022-12-16T16:41:42;7.40;95.60
36990;DHT22;22898;52.102;5.776;2022-12-16T16:44:26;7.90;95.20
36990;DHT22;22898;52.102;5.776;2022-12-16T16:47:15;8.10;94.60
36990;DHT22;22898;52.102;5.776;2022-12-16T16:50:00;8.10;94.60
36990;DHT22;22898;52.102;5.776;2022-12-16T16:52:44;8.60;93.50
36990;DHT22;22898;52.102;5.776;2022-12-16T16:55:28;8.80;93.40
36990;DHT22;22898;52.102;5.776;2022-12-16T16:58:22;9.20;92.80
36990;DHT22;22898;52.102;5.776;2022-12-16T17:01:11;9.20;92.60
36990;DHT22;22898;52.102;5.776;2022-12-16T17:03:55;9.40;92.20
36990;DHT22;22898;52.102;5.776;2022-12-16T17:06:39;9.60;91.90
36990;DHT22;22898;52.102;5.776;2022-12-16T17:09:23;9.20;92.40
36990;DHT22;22898;52.102;5.776;2022-12-16T17:12:20;9.30;92.30
36990;DHT22;22898;52.102;5.776;2022-12-16T17:15:19;9.60;91.60
36990;DHT22;22898;52.102;5.776;2022-12-16T17:18:04;9.70;91.40
36990;DHT22;22898;52.102;5.776;2022-12-16T17:20:49;9.60;91.80
36990;DHT22;22898;52.102;5.776;2022-12-16T17:23:33;9.80;91.70
36990;DHT22;22898;52.102;5.776;2022-12-16T17:26:18;10.00;91.30
36990;DHT22;22898;52.102;5.776;2022-12-16T17:29:02;10.20;90.60
36990;DHT22;22898;52.102;5.776;2022-12-16T17:31:47;10.30;90.30
36990;DHT22;22898;52.102;5.776;2022-12-16T17:34:31;10.30;90.50
36990;DHT22;22898;52.102;5.776;2022-12-16T17:37:15;10.20;90.60
36990;DHT22;22898;52.102;5.776;2022-12-16T17:39:59;10.20;90.60
36990;DHT22;22898;52.102;5.776;2022-12-16T17:42:43;10.20;90.60
36990;DHT22;22898;52.102;5.776;2022-12-16T17:45:27;10.30;90.50
36990;DHT22;22898;52.102;5.776;2022-12-16T17:48:11;10.50;90.10
36990;DHT22;22898;52.102;5.776;2022-12-16T17:50:55;10.60;89.70
36990;DHT22;22898;52.102;5.776;2022-12-16T17:53:39;10.60;89.60
36990;DHT22;22898;52.102;5.776;2022-12-16T17:56:23;10.50;89.90
36990;DHT22;22898;52.102;5.776;2022-12-16T17:59:08;10.40;90.10
36990;DHT22;22898;52.102;5.776;2022-12-16T18:01:52;10.50;90.20
36990;DHT22;22898;52.102;5.776;2022-12-16T18:04:36;10.50;90.10
36990;DHT22;22898;52.102;5.776;2022-12-16T18:07:20;10.60;89.80
36990;DHT22;22898;52.102;5.776;2022-12-16T18:10:04;10.50;90.00
36990;DHT22;22898;52.102;5.776;2022-12-16T18:12:49;10.50;89.90
36990;DHT22;22898;52.102;5.776;2022-12-16T18:15:33;10.60;89.50
36990;DHT22;22898;52.102;5.776;2022-12-16T18:18:17;10.70;89.10
36990;DHT22;22898;52.102;5.776;2022-12-16T18:21:11;10.60;89.40
36990;DHT22;22898;52.102;5.776;2022-12-16T18:23:55;10.40;89.90
36990;DHT22;22898;52.102;5.776;2022-12-16T18:26:40;10.40;90.00
36990;DHT22;22898;52.102;5.776;2022-12-16T18:29:24;10.40;90.00
36990;DHT22;22898;52.102;5.776;2022-12-16T18:32:08;10.50;89.90
36990;DHT22;22898;52.102;5.776;2022-12-16T18:34:52;10.60;90.00
36990;DHT22;22898;52.102;5.776;2022-12-16T18:37:36;10.50;89.80
36990;DHT22;22898;52.102;5.776;2022-12-16T18:40:20;10.50;90.00
36990;DHT22;22898;52.102;5.776;2022-12-16T18:43:04;10.50;90.00
36990;DHT22;22898;52.102;5.776;2022-12-16T18:45:52;10.40;90.00
36990;DHT22;22898;52.102;5.776;2022-12-16T18:48:37;10.50;90.00
36990;DHT22;22898;52.102;5.776;2022-12-16T18:51:21;10.50;90.00
36990;DHT22;22898;52.102;5.776;2022-12-16T18:54:06;10.50;90.00
36990;DHT22;22898;52.102;5.776;2022-12-16T18:56:50;10.50;90.00
36990;DHT22;22898;52.102;5.776;2022-12-16T18:59:34;10.40;89.90
36990;DHT22;22898;52.102;5.776;2022-12-16T19:02:18;10.40;90.20
36990;DHT22;22898;52.102;5.776;2022-12-16T19:05:02;10.50;89.80
36990;DHT22;22898;52.102;5.776;2022-12-16T19:07:46;10.50;89.60
36990;DHT22;22898;52.102;5.776;2022-12-16T19:10:31;10.40;90.00
36990;DHT22;22898;52.102;5.776;2022-12-16T19:13:15;10.40;90.00
36990;DHT22;22898;52.102;5.776;2022-12-16T19:15:59;10.40;90.00
36990;DHT22;22898;52.102;5.776;2022-12-16T19:18:43;10.50;90.10
36990;DHT22;22898;52.102;5.776;2022-12-16T19:21:28;10.50;90.00
36990;DHT22;22898;52.102;5.776;2022-12-16T19:24:12;10.60;89.20